sensor_id;sensor_type;location;lat;lon;timestamp;temperature;humidity
12477;DHT22;6303;51.504;6.300;2022-07-09T00:01:20;27.10;57.10
12477;DHT22;6303;51.504;6.300;2022-07-09T00:03:47;27.10;57.10
12477;DHT22;6303;51.504;6.300;2022-07-09T00:06:14;27.10;57.10
12477;DHT22;6303;51.504;6.300;2022-07-09T00:08:41;27.10;57.00
12477;DHT22;6303;51.504;6.300;2022-07-09T00:11:08;27.20;57.00
12477;DHT22;6303;51.504;6.300;2022-07-09T00:13:35;27.20;56.80
12477;DHT22;6303;51.504;6.300;2022-07-09T00:16:02;27.30;56.70
12477;DHT22;6303;51.504;6.300;2022-07-09T00:18:30;27.30;56.40
12477;DHT22;6303;51.504;6.300;2022-07-09T00:20:57;27.10;56.60
12477;DHT22;6303;51.504;6.300;2022-07-09T00:23:24;27.00;56.90
12477;DHT22;6303;51.504;6.300;2022-07-09T00:25:51;26.90;56.90
12477;DHT22;6303;51.504;6.300;2022-07-09T00:28:19;26.60;57.10
12477;DHT22;6303;51.504;6.300;2022-07-09T00:30:46;26.40;57.40
12477;DHT22;6303;51.504;6.300;2022-07-09T00:33:13;26.00;58.20
12477;DHT22;6303;51.504;6.300;2022-07-09T00:35:41;25.90;58.70
12477;DHT22;6303;51.504;6.300;2022-07-09T00:38:08;25.90;58.80
12477;DHT22;6303;51.504;6.300;2022-07-09T00:40:35;25.80;59.20
12477;DHT22;6303;51.504;6.300;2022-07-09T00:43:02;25.60;59.50
12477;DHT22;6303;51.504;6.300;2022-07-09T00:45:29;25.40;59.60
12477;DHT22;6303;51.504;6.300;2022-07-09T00:47:56;25.40;59.80
12477;DHT22;6303;51.504;6.300;2022-07-09T00:50:23;25.40;59.90
12477;DHT22;6303;51.504;6.300;2022-07-09T00:52:52;25.30;60.20
12477;DHT22;6303;51.504;6.300;2022-07-09T00:55:19;25.20;60.50
12477;DHT22;6303;51.504;6.300;2022-07-09T00:57:46;25.30;60.70
12477;DHT22;6303;51.504;6.300;2022-07-09T01:00:14;25.40;60.60
12477;DHT22;6303;51.504;6.300;2022-07-09T01:02:41;25.30;60.30
12477;DHT22;6303;51.504;6.300;2022-07-09T01:05:08;25.30;60.40
12477;DHT22;6303;51.504;6.300;2022-07-09T01:07:35;25.30;60.90
12477;DHT22;6303;51.504;6.300;2022-07-09T01:10:04;25.40;60.80
12477;DHT22;6303;51.504;6.300;2022-07-09T01:12:32;25.50;60.60
12477;DHT22;6303;51.504;6.300;2022-07-09T01:14:59;25.70;59.40
12477;DHT22;6303;51.504;6.300;2022-07-09T01:17:36;25.70;59.90
12477;DHT22;6303;51.504;6.300;2022-07-09T01:20:04;25.80;59.80
12477;DHT22;6303;51.504;6.300;2022-07-09T01:22:33;25.80;59.60
12477;DHT22;6303;51.504;6.300;2022-07-09T01:25:00;25.80;59.50
12477;DHT22;6303;51.504;6.300;2022-07-09T01:27:28;25.60;59.70
12477;DHT22;6303;51.504;6.300;2022-07-09T01:29:55;25.50;59.80
12477;DHT22;6303;51.504;6.300;2022-07-09T01:32:22;25.50;60.00
12477;DHT22;6303;51.504;6.300;2022-07-09T01:34:49;25.30;60.30
12477;DHT22;6303;51.504;6.300;2022-07-09T01:37:16;25.10;60.90
12477;DHT22;6303;51.504;6.300;2022-07-09T01:39:44;24.90;61.50
12477;DHT22;6303;51.504;6.300;2022-07-09T01:42:16;24.80;62.00
12477;DHT22;6303;51.504;6.300;2022-07-09T01:44:44;24.80;62.40
12477;DHT22;6303;51.504;6.300;2022-07-09T01:47:11;24.90;62.20
12477;DHT22;6303;51.504;6.300;2022-07-09T01:49:40;25.10;62.10
12477;DHT22;6303;51.504;6.300;2022-07-09T01:52:08;25.20;61.70
12477;DHT22;6303;51.504;6.300;2022-07-09T01:54:35;25.20;61.60
12477;DHT22;6303;51.504;6.300;2022-07-09T01:57:03;24.90;62.10
12477;DHT22;6303;51.504;6.300;2022-07-09T01:59:31;24.80;62.80
12477;DHT22;6303;51.504;6.300;2022-07-09T02:01:57;24.80;62.80
12477;DHT22;6303;51.504;6.300;2022-07-09T02:04:24;24.80;62.70
12477;DHT22;6303;51.504;6.300;2022-07-09T02:06:51;25.00;62.50
12477;DHT22;6303;51.504;6.300;2022-07-09T02:09:19;25.00;62.00
12477;DHT22;6303;51.504;6.300;2022-07-09T02:11:46;25.10;61.90
12477;DHT22;6303;51.504;6.300;2022-07-09T02:14:14;25.30;61.60
12477;DHT22;6303;51.504;6.300;2022-07-09T02:16:41;25.50;60.90
12477;DHT22;6303;51.504;6.300;2022-07-09T02:19:08;25.70;60.70
12477;DHT22;6303;51.504;6.300;2022-07-09T02:21:35;25.80;60.40
12477;DHT22;6303;51.504;6.300;2022-07-09T02:24:02;25.90;60.00
12477;DHT22;6303;51.504;6.300;2022-07-09T02:26:29;25.90;59.90
12477;DHT22;6303;51.504;6.300;2022-07-09T02:28:56;25.90;59.80
12477;DHT22;6303;51.504;6.300;2022-07-09T02:31:25;25.80;59.80
12477;DHT22;6303;51.504;6.300;2022-07-09T02:33:52;25.50;60.50
12477;DHT22;6303;51.504;6.300;2022-07-09T02:36:19;25.50;60.90
12477;DHT22;6303;51.504;6.300;2022-07-09T02:38:46;25.50;60.90
12477;DHT22;6303;51.504;6.300;2022-07-09T02:41:14;25.60;60.80
12477;DHT22;6303;51.504;6.300;2022-07-09T02:43:41;25.70;60.70
12477;DHT22;6303;51.504;6.300;2022-07-09T02:46:09;25.70;60.40
12477;DHT22;6303;51.504;6.300;2022-07-09T02:48:37;25.60;60.30
12477;DHT22;6303;51.504;6.300;2022-07-09T02:51:05;25.40;61.00
12477;DHT22;6303;51.504;6.300;2022-07-09T02:53:32;25.20;61.40
12477;DHT22;6303;51.504;6.300;2022-07-09T02:55:59;25.30;61.70
12477;DHT22;6303;51.504;6.300;2022-07-09T02:58:26;25.40;61.20
12477;DHT22;6303;51.504;6.300;2022-07-09T03:00:53;25.30;60.80
12477;DHT22;6303;51.504;6.300;2022-07-09T03:03:20;25.20;61.40
12477;DHT22;6303;51.504;6.300;2022-07-09T03:05:50;25.30;61.50
12477;DHT22;6303;51.504;6.300;2022-07-09T03:08:17;25.40;61.20
12477;DHT22;6303;51.504;6.300;2022-07-09T03:10:47;25.50;61.00
12477;DHT22;6303;51.504;6.300;2022-07-09T03:13:15;25.50;61.00
12477;DHT22;6303;51.504;6.300;2022-07-09T03:15:42;25.60;60.80
12477;DHT22;6303;51.504;6.300;2022-07-09T03:18:09;25.50;60.80
12477;DHT22;6303;51.504;6.300;2022-07-09T03:20:36;25.40;60.70
12477;DHT22;6303;51.504;6.300;2022-07-09T03:23:05;25.30;61.00
12477;DHT22;6303;51.504;6.300;2022-07-09T03:25:33;25.10;61.60
12477;DHT22;6303;51.504;6.300;2022-07-09T03:28:00;24.80;62.50
12477;DHT22;6303;51.504;6.300;2022-07-09T03:30:27;24.60;63.20
12477;DHT22;6303;51.504;6.300;2022-07-09T03:32:54;24.40;64.00
12477;DHT22;6303;51.504;6.300;2022-07-09T03:35:21;24.10;64.60
12477;DHT22;6303;51.504;6.300;2022-07-09T03:37:48;24.10;65.20
12477;DHT22;6303;51.504;6.300;2022-07-09T03:40:16;24.10;65.70
12477;DHT22;6303;51.504;6.300;2022-07-09T03:42:44;24.00;65.70
12477;DHT22;6303;51.504;6.300;2022-07-09T03:45:11;23.60;66.60
12477;DHT22;6303;51.504;6.300;2022-07-09T03:47:38;23.60;67.30
12477;DHT22;6303;51.504;6.300;2022-07-09T03:50:06;23.60;67.50
12477;DHT22;6303;51.504;6.300;2022-07-09T03:52:33;23.80;67.00
12477;DHT22;6303;51.504;6.300;2022-07-09T03:55:00;23.90;66.20
12477;DHT22;6303;51.504;6.300;2022-07-09T03:57:28;23.90;66.80
12477;DHT22;6303;51.504;6.300;2022-07-09T03:59:55;24.10;66.20
12477;DHT22;6303;51.504;6.300;2022-07-09T04:02:22;24.40;65.10
12477;DHT22;6303;51.504;6.300;2022-07-09T04:04:50;24.30;64.00
12477;DHT22;6303;51.504;6.300;2022-07-09T04:07:17;24.40;64.00
12477;DHT22;6303;51.504;6.300;2022-07-09T04:09:44;24.50;64.00
12477;DHT22;6303;51.504;6.300;2022-07-09T04:12:11;24.60;62.80
12477;DHT22;6303;51.504;6.300;2022-07-09T04:14:39;24.60;62.60
12477;DHT22;6303;51.504;6.300;2022-07-09T04:17:06;24.60;62.80
12477;DHT22;6303;51.504;6.300;2022-07-09T04:19:33;24.70;62.90
12477;DHT22;6303;51.504;6.300;2022-07-09T04:22:00;24.80;62.20
12477;DHT22;6303;51.504;6.300;2022-07-09T04:24:28;24.90;62.00
12477;DHT22;6303;51.504;6.300;2022-07-09T04:26:55;24.90;61.60
12477;DHT22;6303;51.504;6.300;2022-07-09T04:29:22;25.00;62.00
12477;DHT22;6303;51.504;6.300;2022-07-09T04:31:51;25.10;61.70
12477;DHT22;6303;51.504;6.300;2022-07-09T04:34:18;25.10;61.60
12477;DHT22;6303;51.504;6.300;2022-07-09T04:36:45;25.10;61.60
12477;DHT22;6303;51.504;6.300;2022-07-09T04:39:12;25.20;61.50
12477;DHT22;6303;51.504;6.300;2022-07-09T04:41:39;25.40;61.00
12477;DHT22;6303;51.504;6.300;2022-07-09T04:44:06;25.60;60.60
12477;DHT22;6303;51.504;6.300;2022-07-09T04:46:33;25.80;60.00
12477;DHT22;6303;51.504;6.300;2022-07-09T04:49:02;26.00;59.60
12477;DHT22;6303;51.504;6.300;2022-07-09T04:51:29;26.20;59.30
12477;DHT22;6303;51.504;6.300;2022-07-09T04:53:56;26.30;59.10
12477;DHT22;6303;51.504;6.300;2022-07-09T04:56:23;26.40;59.00
12477;DHT22;6303;51.504;6.300;2022-07-09T04:58:50;26.50;59.00
12477;DHT22;6303;51.504;6.300;2022-07-09T05:01:20;26.60;58.70
12477;DHT22;6303;51.504;6.300;2022-07-09T05:03:48;26.60;58.40
12477;DHT22;6303;51.504;6.300;2022-07-09T05:06:17;26.60;58.70
12477;DHT22;6303;51.504;6.300;2022-07-09T05:08:44;26.70;58.60
12477;DHT22;6303;51.504;6.300;2022-07-09T05:11:13;26.70;58.60
12477;DHT22;6303;51.504;6.300;2022-07-09T05:13:40;26.70;58.60
12477;DHT22;6303;51.504;6.300;2022-07-09T05:16:07;26.70;58.60
12477;DHT22;6303;51.504;6.300;2022-07-09T05:18:35;26.80;58.40
12477;DHT22;6303;51.504;6.300;2022-07-09T05:21:02;26.90;58.10
12477;DHT22;6303;51.504;6.300;2022-07-09T05:23:31;27.00;58.10
12477;DHT22;6303;51.504;6.300;2022-07-09T05:25:58;27.10;58.00
12477;DHT22;6303;51.504;6.300;2022-07-09T05:28:26;27.20;58.00
12477;DHT22;6303;51.504;6.300;2022-07-09T05:30:53;27.20;57.80
12477;DHT22;6303;51.504;6.300;2022-07-09T05:33:20;27.30;57.90
12477;DHT22;6303;51.504;6.300;2022-07-09T05:35:47;27.30;58.20
12477;DHT22;6303;51.504;6.300;2022-07-09T05:38:14;27.20;58.30
12477;DHT22;6303;51.504;6.300;2022-07-09T05:40:43;26.40;57.70
12477;DHT22;6303;51.504;6.300;2022-07-09T05:43:10;27.20;58.10
12477;DHT22;6303;51.504;6.300;2022-07-09T05:45:37;27.30;58.10
12477;DHT22;6303;51.504;6.300;2022-07-09T05:48:04;27.30;58.10
12477;DHT22;6303;51.504;6.300;2022-07-09T05:50:31;27.30;58.00
12477;DHT22;6303;51.504;6.300;2022-07-09T05:52:58;27.30;57.90
12477;DHT22;6303;51.504;6.300;2022-07-09T05:55:26;25.10;56.50
12477;DHT22;6303;51.504;6.300;2022-07-09T05:57:54;27.30;57.80
12477;DHT22;6303;51.504;6.300;2022-07-09T06:00:21;27.30;57.80
12477;DHT22;6303;51.504;6.300;2022-07-09T06:02:48;27.40;57.80
12477;DHT22;6303;51.504;6.300;2022-07-09T06:05:15;27.40;58.00
12477;DHT22;6303;51.504;6.300;2022-07-09T06:07:45;27.40;57.90
12477;DHT22;6303;51.504;6.300;2022-07-09T06:10:12;27.30;58.20
12477;DHT22;6303;51.504;6.300;2022-07-09T06:12:40;27.30;58.40
12477;DHT22;6303;51.504;6.300;2022-07-09T06:15:10;27.30;58.20
12477;DHT22;6303;51.504;6.300;2022-07-09T06:17:37;27.30;58.20
12477;DHT22;6303;51.504;6.300;2022-07-09T06:20:06;27.40;58.30
12477;DHT22;6303;51.504;6.300;2022-07-09T06:22:33;27.40;58.30
12477;DHT22;6303;51.504;6.300;2022-07-09T06:25:00;27.40;58.20
12477;DHT22;6303;51.504;6.300;2022-07-09T06:27:27;27.40;58.20
12477;DHT22;6303;51.504;6.300;2022-07-09T06:29:55;27.40;58.20
12477;DHT22;6303;51.504;6.300;2022-07-09T06:32:23;27.40;58.20
12477;DHT22;6303;51.504;6.300;2022-07-09T06:34:51;27.40;58.30
12477;DHT22;6303;51.504;6.300;2022-07-09T06:37:18;27.40;58.30
12477;DHT22;6303;51.504;6.300;2022-07-09T06:39:45;27.40;58.30
12477;DHT22;6303;51.504;6.300;2022-07-09T06:42:14;27.40;58.30
12477;DHT22;6303;51.504;6.300;2022-07-09T06:44:45;27.40;58.20
12477;DHT22;6303;51.504;6.300;2022-07-09T06:47:12;27.50;58.20
12477;DHT22;6303;51.504;6.300;2022-07-09T06:49:40;27.40;58.10
12477;DHT22;6303;51.504;6.300;2022-07-09T06:52:07;27.30;58.10
12477;DHT22;6303;51.504;6.300;2022-07-09T06:54:35;27.20;58.50
12477;DHT22;6303;51.504;6.300;2022-07-09T06:57:02;27.20;58.90
12477;DHT22;6303;51.504;6.300;2022-07-09T06:59:30;27.20;58.70
12477;DHT22;6303;51.504;6.300;2022-07-09T07:01:56;27.30;58.50
12477;DHT22;6303;51.504;6.300;2022-07-09T07:04:24;27.30;58.30
12477;DHT22;6303;51.504;6.300;2022-07-09T07:06:53;27.30;58.20
12477;DHT22;6303;51.504;6.300;2022-07-09T07:09:20;27.40;58.20
12477;DHT22;6303;51.504;6.300;2022-07-09T07:11:48;27.40;58.00
12477;DHT22;6303;51.504;6.300;2022-07-09T07:14:15;27.50;57.90
12477;DHT22;6303;51.504;6.300;2022-07-09T07:16:42;27.50;57.70
12477;DHT22;6303;51.504;6.300;2022-07-09T07:19:10;27.50;57.50
12477;DHT22;6303;51.504;6.300;2022-07-09T07:21:37;27.60;57.50
12477;DHT22;6303;51.504;6.300;2022-07-09T07:24:06;27.50;57.60
12477;DHT22;6303;51.504;6.300;2022-07-09T07:26:33;27.50;57.60
12477;DHT22;6303;51.504;6.300;2022-07-09T07:29:01;27.50;57.60
12477;DHT22;6303;51.504;6.300;2022-07-09T07:31:28;27.50;57.70
12477;DHT22;6303;51.504;6.300;2022-07-09T07:33:55;27.50;57.70
12477;DHT22;6303;51.504;6.300;2022-07-09T07:36:22;27.60;57.70
12477;DHT22;6303;51.504;6.300;2022-07-09T07:38:49;27.60;57.80
12477;DHT22;6303;51.504;6.300;2022-07-09T07:41:17;27.50;57.60
12477;DHT22;6303;51.504;6.300;2022-07-09T07:43:47;27.50;57.60
12477;DHT22;6303;51.504;6.300;2022-07-09T07:46:14;27.50;57.50
12477;DHT22;6303;51.504;6.300;2022-07-09T07:48:41;27.50;57.50
12477;DHT22;6303;51.504;6.300;2022-07-09T07:51:08;27.50;57.60
12477;DHT22;6303;51.504;6.300;2022-07-09T07:53:35;27.50;57.70
12477;DHT22;6303;51.504;6.300;2022-07-09T07:56:03;27.50;57.60
12477;DHT22;6303;51.504;6.300;2022-07-09T07:58:32;27.50;57.50
12477;DHT22;6303;51.504;6.300;2022-07-09T08:00:59;27.50;57.50
12477;DHT22;6303;51.504;6.300;2022-07-09T08:03:26;27.50;57.40
12477;DHT22;6303;51.504;6.300;2022-07-09T08:05:53;27.60;57.50
12477;DHT22;6303;51.504;6.300;2022-07-09T08:08:20;27.50;57.40
12477;DHT22;6303;51.504;6.300;2022-07-09T08:10:48;27.50;57.40
12477;DHT22;6303;51.504;6.300;2022-07-09T08:13:15;27.50;57.50
12477;DHT22;6303;51.504;6.300;2022-07-09T08:15:43;27.50;57.60
12477;DHT22;6303;51.504;6.300;2022-07-09T08:18:11;27.60;57.70
12477;DHT22;6303;51.504;6.300;2022-07-09T08:20:40;27.60;57.60
12477;DHT22;6303;51.504;6.300;2022-07-09T08:23:07;27.60;57.70
12477;DHT22;6303;51.504;6.300;2022-07-09T08:25:35;27.60;57.70
12477;DHT22;6303;51.504;6.300;2022-07-09T08:28:02;27.60;57.50
12477;DHT22;6303;51.504;6.300;2022-07-09T08:30:29;27.60;57.40
12477;DHT22;6303;51.504;6.300;2022-07-09T08:32:58;27.60;57.30
12477;DHT22;6303;51.504;6.300;2022-07-09T08:35:25;27.70;57.10
12477;DHT22;6303;51.504;6.300;2022-07-09T08:37:52;27.70;57.10
12477;DHT22;6303;51.504;6.300;2022-07-09T08:40:20;27.70;56.90
12477;DHT22;6303;51.504;6.300;2022-07-09T08:42:47;27.70;56.90
12477;DHT22;6303;51.504;6.300;2022-07-09T08:45:17;27.70;56.80
12477;DHT22;6303;51.504;6.300;2022-07-09T08:47:44;30.20;58.70
12477;DHT22;6303;51.504;6.300;2022-07-09T08:50:13;27.80;57.20
12477;DHT22;6303;51.504;6.300;2022-07-09T08:52:41;27.80;57.00
12477;DHT22;6303;51.504;6.300;2022-07-09T08:55:09;27.80;56.90
12477;DHT22;6303;51.504;6.300;2022-07-09T08:57:36;27.80;56.80
12477;DHT22;6303;51.504;6.300;2022-07-09T09:00:05;27.80;56.80
12477;DHT22;6303;51.504;6.300;2022-07-09T09:02:36;27.80;56.90
12477;DHT22;6303;51.504;6.300;2022-07-09T09:05:13;27.80;57.10
12477;DHT22;6303;51.504;6.300;2022-07-09T09:07:43;27.80;57.20
12477;DHT22;6303;51.504;6.300;2022-07-09T09:10:20;27.80;57.10
12477;DHT22;6303;51.504;6.300;2022-07-09T09:12:49;26.60;56.30
12477;DHT22;6303;51.504;6.300;2022-07-09T09:15:17;27.80;57.00
12477;DHT22;6303;51.504;6.300;2022-07-09T09:17:44;27.90;57.10
12477;DHT22;6303;51.504;6.300;2022-07-09T09:20:14;27.90;57.10
12477;DHT22;6303;51.504;6.300;2022-07-09T09:22:45;27.90;57.10
12477;DHT22;6303;51.504;6.300;2022-07-09T09:25:16;27.90;57.10
12477;DHT22;6303;51.504;6.300;2022-07-09T09:27:50;27.80;57.10
12477;DHT22;6303;51.504;6.300;2022-07-09T09:30:17;27.90;57.10
12477;DHT22;6303;51.504;6.300;2022-07-09T09:32:53;27.80;56.90
12477;DHT22;6303;51.504;6.300;2022-07-09T09:35:21;27.80;56.80
12477;DHT22;6303;51.504;6.300;2022-07-09T09:37:50;27.90;56.80
12477;DHT22;6303;51.504;6.300;2022-07-09T09:40:17;27.90;56.90
12477;DHT22;6303;51.504;6.300;2022-07-09T09:42:45;27.70;57.00
12477;DHT22;6303;51.504;6.300;2022-07-09T09:45:13;27.70;57.00
12477;DHT22;6303;51.504;6.300;2022-07-09T09:47:45;27.70;57.10
12477;DHT22;6303;51.504;6.300;2022-07-09T09:50:17;27.80;56.80
12477;DHT22;6303;51.504;6.300;2022-07-09T09:52:48;27.80;56.80
12477;DHT22;6303;51.504;6.300;2022-07-09T09:55:16;27.80;56.80
12477;DHT22;6303;51.504;6.300;2022-07-09T09:57:44;27.80;57.00
12477;DHT22;6303;51.504;6.300;2022-07-09T10:00:11;27.80;57.00
12477;DHT22;6303;51.504;6.300;2022-07-09T10:02:43;27.80;56.90
12477;DHT22;6303;51.504;6.300;2022-07-09T10:05:10;27.80;57.10
12477;DHT22;6303;51.504;6.300;2022-07-09T10:07:39;27.80;57.00
12477;DHT22;6303;51.504;6.300;2022-07-09T10:10:15;27.90;57.30
12477;DHT22;6303;51.504;6.300;2022-07-09T10:12:43;27.90;57.00
12477;DHT22;6303;51.504;6.300;2022-07-09T10:15:20;27.90;57.10
12477;DHT22;6303;51.504;6.300;2022-07-09T10:17:48;27.90;57.00
12477;DHT22;6303;51.504;6.300;2022-07-09T10:20:15;27.90;56.90
12477;DHT22;6303;51.504;6.300;2022-07-09T10:22:43;27.90;56.90
12477;DHT22;6303;51.504;6.300;2022-07-09T10:25:13;27.80;57.10
12477;DHT22;6303;51.504;6.300;2022-07-09T10:27:48;27.80;57.20
12477;DHT22;6303;51.504;6.300;2022-07-09T10:30:23;27.90;57.20
12477;DHT22;6303;51.504;6.300;2022-07-09T10:33:05;27.90;57.40
12477;DHT22;6303;51.504;6.300;2022-07-09T10:35:40;27.80;57.50
12477;DHT22;6303;51.504;6.300;2022-07-09T10:38:07;27.70;57.70
12477;DHT22;6303;51.504;6.300;2022-07-09T10:40:40;27.70;57.70
12477;DHT22;6303;51.504;6.300;2022-07-09T10:43:08;27.70;57.50
12477;DHT22;6303;51.504;6.300;2022-07-09T10:45:39;27.80;57.50
12477;DHT22;6303;51.504;6.300;2022-07-09T10:48:08;27.80;57.70
12477;DHT22;6303;51.504;6.300;2022-07-09T10:50:37;27.80;57.70
12477;DHT22;6303;51.504;6.300;2022-07-09T10:53:05;27.80;57.70
12477;DHT22;6303;51.504;6.300;2022-07-09T10:55:33;27.80;57.50
12477;DHT22;6303;51.504;6.300;2022-07-09T10:58:01;27.80;57.80
12477;DHT22;6303;51.504;6.300;2022-07-09T11:00:33;27.80;57.60
12477;DHT22;6303;51.504;6.300;2022-07-09T11:03:02;27.70;57.80
12477;DHT22;6303;51.504;6.300;2022-07-09T11:05:31;27.70;57.90
12477;DHT22;6303;51.504;6.300;2022-07-09T11:08:02;27.70;58.10
12477;DHT22;6303;51.504;6.300;2022-07-09T11:10:31;27.80;58.10
12477;DHT22;6303;51.504;6.300;2022-07-09T11:13:00;27.60;58.70
12477;DHT22;6303;51.504;6.300;2022-07-09T11:15:29;27.40;59.20
12477;DHT22;6303;51.504;6.300;2022-07-09T11:18:02;27.40;59.30
12477;DHT22;6303;51.504;6.300;2022-07-09T11:20:30;27.40;59.40
12477;DHT22;6303;51.504;6.300;2022-07-09T11:22:58;27.40;59.60
12477;DHT22;6303;51.504;6.300;2022-07-09T11:25:26;27.30;59.60
12477;DHT22;6303;51.504;6.300;2022-07-09T11:27:54;27.30;59.60
12477;DHT22;6303;51.504;6.300;2022-07-09T11:30:23;27.30;59.40
12477;DHT22;6303;51.504;6.300;2022-07-09T11:32:51;27.30;59.40
12477;DHT22;6303;51.504;6.300;2022-07-09T11:35:26;27.30;58.90
12477;DHT22;6303;51.504;6.300;2022-07-09T11:37:54;27.30;59.40
12477;DHT22;6303;51.504;6.300;2022-07-09T11:40:21;27.40;59.00
12477;DHT22;6303;51.504;6.300;2022-07-09T11:42:49;27.40;58.80
12477;DHT22;6303;51.504;6.300;2022-07-09T11:45:22;27.40;58.50
12477;DHT22;6303;51.504;6.300;2022-07-09T11:47:49;27.30;59.00
12477;DHT22;6303;51.504;6.300;2022-07-09T11:50:18;27.30;59.00
12477;DHT22;6303;51.504;6.300;2022-07-09T11:52:49;27.30;59.10
12477;DHT22;6303;51.504;6.300;2022-07-09T11:55:18;27.60;58.80
12477;DHT22;6303;51.504;6.300;2022-07-09T11:57:52;27.80;58.40
12477;DHT22;6303;51.504;6.300;2022-07-09T12:00:26;27.80;58.60
12477;DHT22;6303;51.504;6.300;2022-07-09T12:02:54;28.00;58.30
12477;DHT22;6303;51.504;6.300;2022-07-09T12:05:26;28.00;58.00
12477;DHT22;6303;51.504;6.300;2022-07-09T12:07:56;28.10;58.10
12477;DHT22;6303;51.504;6.300;2022-07-09T12:10:28;28.00;58.40
12477;DHT22;6303;51.504;6.300;2022-07-09T12:12:56;27.90;58.50
12477;DHT22;6303;51.504;6.300;2022-07-09T12:15:25;28.00;58.70
12477;DHT22;6303;51.504;6.300;2022-07-09T12:17:53;28.10;58.40
12477;DHT22;6303;51.504;6.300;2022-07-09T12:20:22;28.10;58.20
12477;DHT22;6303;51.504;6.300;2022-07-09T12:22:50;28.20;58.00
12477;DHT22;6303;51.504;6.300;2022-07-09T12:25:18;28.20;58.10
12477;DHT22;6303;51.504;6.300;2022-07-09T12:27:45;28.20;58.20
12477;DHT22;6303;51.504;6.300;2022-07-09T12:30:13;28.10;58.00
12477;DHT22;6303;51.504;6.300;2022-07-09T12:32:41;28.10;57.90
12477;DHT22;6303;51.504;6.300;2022-07-09T12:35:09;28.20;57.90
12477;DHT22;6303;51.504;6.300;2022-07-09T12:37:37;28.20;57.70
12477;DHT22;6303;51.504;6.300;2022-07-09T12:40:06;28.20;57.80
12477;DHT22;6303;51.504;6.300;2022-07-09T12:42:33;28.30;58.10
12477;DHT22;6303;51.504;6.300;2022-07-09T12:45:01;28.20;58.50
12477;DHT22;6303;51.504;6.300;2022-07-09T12:47:28;28.30;57.90
12477;DHT22;6303;51.504;6.300;2022-07-09T12:49:56;28.20;57.70
12477;DHT22;6303;51.504;6.300;2022-07-09T12:52:23;28.30;57.60
12477;DHT22;6303;51.504;6.300;2022-07-09T12:54:52;28.30;57.30
12477;DHT22;6303;51.504;6.300;2022-07-09T12:57:19;28.30;57.00
12477;DHT22;6303;51.504;6.300;2022-07-09T12:59:46;28.40;56.40
12477;DHT22;6303;51.504;6.300;2022-07-09T13:02:13;28.30;56.80
12477;DHT22;6303;51.504;6.300;2022-07-09T13:04:40;28.30;57.00
12477;DHT22;6303;51.504;6.300;2022-07-09T13:07:09;28.30;57.00
12477;DHT22;6303;51.504;6.300;2022-07-09T13:09:36;32.90;59.50
12477;DHT22;6303;51.504;6.300;2022-07-09T13:12:04;28.30;57.00
12477;DHT22;6303;51.504;6.300;2022-07-09T13:14:31;28.30;57.00
12477;DHT22;6303;51.504;6.300;2022-07-09T13:16:58;28.40;56.90
12477;DHT22;6303;51.504;6.300;2022-07-09T13:19:25;28.30;56.70
12477;DHT22;6303;51.504;6.300;2022-07-09T13:21:52;28.30;56.60
12477;DHT22;6303;51.504;6.300;2022-07-09T13:24:20;28.30;56.60
12477;DHT22;6303;51.504;6.300;2022-07-09T13:26:47;28.30;56.60
12477;DHT22;6303;51.504;6.300;2022-07-09T13:29:14;28.30;56.50
12477;DHT22;6303;51.504;6.300;2022-07-09T13:31:41;28.30;56.40
12477;DHT22;6303;51.504;6.300;2022-07-09T13:34:08;28.30;56.40
12477;DHT22;6303;51.504;6.300;2022-07-09T13:36:35;28.30;56.30
12477;DHT22;6303;51.504;6.300;2022-07-09T13:39:03;28.40;56.10
12477;DHT22;6303;51.504;6.300;2022-07-09T13:41:31;28.40;55.90
12477;DHT22;6303;51.504;6.300;2022-07-09T13:43:58;28.40;55.90
12477;DHT22;6303;51.504;6.300;2022-07-09T13:46:25;28.30;55.70
12477;DHT22;6303;51.504;6.300;2022-07-09T13:48:52;28.40;55.70
12477;DHT22;6303;51.504;6.300;2022-07-09T13:51:19;28.40;55.60
12477;DHT22;6303;51.504;6.300;2022-07-09T13:53:46;28.30;55.60
12477;DHT22;6303;51.504;6.300;2022-07-09T13:56:14;28.30;55.30
12477;DHT22;6303;51.504;6.300;2022-07-09T13:58:42;28.40;54.90
12477;DHT22;6303;51.504;6.300;2022-07-09T14:01:09;28.50;54.60
12477;DHT22;6303;51.504;6.300;2022-07-09T14:03:36;28.40;54.60
12477;DHT22;6303;51.504;6.300;2022-07-09T14:06:04;28.40;54.70
12477;DHT22;6303;51.504;6.300;2022-07-09T14:08:31;28.40;54.80
12477;DHT22;6303;51.504;6.300;2022-07-09T14:10:58;28.40;54.70
12477;DHT22;6303;51.504;6.300;2022-07-09T14:13:26;28.40;54.50
12477;DHT22;6303;51.504;6.300;2022-07-09T14:15:57;28.40;54.00
12477;DHT22;6303;51.504;6.300;2022-07-09T14:18:25;28.40;53.60
12477;DHT22;6303;51.504;6.300;2022-07-09T14:20:54;28.40;53.40
12477;DHT22;6303;51.504;6.300;2022-07-09T14:23:21;28.40;53.60
12477;DHT22;6303;51.504;6.300;2022-07-09T14:25:48;28.30;53.70
12477;DHT22;6303;51.504;6.300;2022-07-09T14:28:15;28.30;53.80
12477;DHT22;6303;51.504;6.300;2022-07-09T14:30:42;28.30;53.80
12477;DHT22;6303;51.504;6.300;2022-07-09T14:33:10;28.30;53.80
12477;DHT22;6303;51.504;6.300;2022-07-09T14:35:37;28.30;53.80
12477;DHT22;6303;51.504;6.300;2022-07-09T14:38:05;28.30;53.70
12477;DHT22;6303;51.504;6.300;2022-07-09T14:40:32;28.10;53.00
12477;DHT22;6303;51.504;6.300;2022-07-09T14:42:59;28.10;52.50
12477;DHT22;6303;51.504;6.300;2022-07-09T14:45:26;28.10;52.30
12477;DHT22;6303;51.504;6.300;2022-07-09T14:47:53;28.20;52.20
12477;DHT22;6303;51.504;6.300;2022-07-09T14:50:21;28.20;52.20
12477;DHT22;6303;51.504;6.300;2022-07-09T14:52:48;28.20;51.90
12477;DHT22;6303;51.504;6.300;2022-07-09T14:55:15;28.20;51.90
12477;DHT22;6303;51.504;6.300;2022-07-09T14:57:42;28.20;51.40
12477;DHT22;6303;51.504;6.300;2022-07-09T15:00:10;28.20;51.40
12477;DHT22;6303;51.504;6.300;2022-07-09T15:02:38;28.20;51.30
12477;DHT22;6303;51.504;6.300;2022-07-09T15:05:05;28.10;50.90
12477;DHT22;6303;51.504;6.300;2022-07-09T15:07:34;27.90;50.60
12477;DHT22;6303;51.504;6.300;2022-07-09T15:10:02;27.80;50.30
12477;DHT22;6303;51.504;6.300;2022-07-09T15:12:30;27.90;50.30
12477;DHT22;6303;51.504;6.300;2022-07-09T15:14:58;27.80;50.50
12477;DHT22;6303;51.504;6.300;2022-07-09T15:17:26;27.80;50.30
12477;DHT22;6303;51.504;6.300;2022-07-09T15:19:53;27.80;50.00
12477;DHT22;6303;51.504;6.300;2022-07-09T15:22:20;27.80;49.80
12477;DHT22;6303;51.504;6.300;2022-07-09T15:24:48;27.90;49.30
12477;DHT22;6303;51.504;6.300;2022-07-09T15:27:15;28.00;49.90
12477;DHT22;6303;51.504;6.300;2022-07-09T15:29:42;28.00;50.10
12477;DHT22;6303;51.504;6.300;2022-07-09T15:32:09;28.10;50.40
12477;DHT22;6303;51.504;6.300;2022-07-09T15:34:36;28.10;50.50
12477;DHT22;6303;51.504;6.300;2022-07-09T15:37:04;28.10;50.40
12477;DHT22;6303;51.504;6.300;2022-07-09T15:39:31;28.20;50.40
12477;DHT22;6303;51.504;6.300;2022-07-09T15:42:01;28.10;49.70
12477;DHT22;6303;51.504;6.300;2022-07-09T15:44:29;28.10;49.30
12477;DHT22;6303;51.504;6.300;2022-07-09T15:46:58;28.10;49.40
12477;DHT22;6303;51.504;6.300;2022-07-09T15:49:28;28.10;49.30